sensor_id;sensor_type;location;lat;lon;timestamp;temperature;humidity
41469;DHT22;27206;47.032;15.484;2023-07-09T00:02:18;20.00;99.90
41469;DHT22;27206;47.032;15.484;2023-07-09T00:04:44;19.90;99.90
41469;DHT22;27206;47.032;15.484;2023-07-09T00:09:44;19.80;99.90
41469;DHT22;27206;47.032;15.484;2023-07-09T00:12:16;19.80;99.90
41469;DHT22;27206;47.032;15.484;2023-07-09T00:14:43;19.70;99.90
41469;DHT22;27206;47.032;15.484;2023-07-09T00:17:21;19.80;99.90
41469;DHT22;27206;47.032;15.484;2023-07-09T00:19:48;19.70;99.90
41469;DHT22;27206;47.032;15.484;2023-07-09T00:22:16;19.70;99.90
41469;DHT22;27206;47.032;15.484;2023-07-09T00:24:43;19.80;99.90
41469;DHT22;27206;47.032;15.484;2023-07-09T00:27:11;19.80;99.90
41469;DHT22;27206;47.032;15.484;2023-07-09T00:29:37;19.80;99.90
41469;DHT22;27206;47.032;15.484;2023-07-09T00:32:03;19.60;99.90
41469;DHT22;27206;47.032;15.484;2023-07-09T00:34:29;19.60;99.90
41469;DHT22;27206;47.032;15.484;2023-07-09T00:36:54;19.60;99.90
41469;DHT22;27206;47.032;15.484;2023-07-09T00:39:21;19.60;99.90
41469;DHT22;27206;47.032;15.484;2023-07-09T00:41:48;19.60;99.90
41469;DHT22;27206;47.032;15.484;2023-07-09T00:49:26;19.40;99.90
41469;DHT22;27206;47.032;15.484;2023-07-09T00:51:53;19.40;99.90
41469;DHT22;27206;47.032;15.484;2023-07-09T00:54:25;19.50;99.90
41469;DHT22;27206;47.032;15.484;2023-07-09T00:56:59;19.40;99.90
41469;DHT22;27206;47.032;15.484;2023-07-09T00:59:28;19.40;99.90
41469;DHT22;27206;47.032;15.484;2023-07-09T01:01:55;19.50;99.90
41469;DHT22;27206;47.032;15.484;2023-07-09T01:04:22;19.50;99.90
41469;DHT22;27206;47.032;15.484;2023-07-09T01:06:52;19.40;99.90
41469;DHT22;27206;47.032;15.484;2023-07-09T01:09:20;19.40;99.90
41469;DHT22;27206;47.032;15.484;2023-07-09T01:11:46;19.50;99.90
41469;DHT22;27206;47.032;15.484;2023-07-09T01:14:15;19.50;99.90
41469;DHT22;27206;47.032;15.484;2023-07-09T01:16:50;19.40;99.90
41469;DHT22;27206;47.032;15.484;2023-07-09T01:19:23;19.40;99.90
41469;DHT22;27206;47.032;15.484;2023-07-09T01:22:00;19.40;99.90
41469;DHT22;27206;47.032;15.484;2023-07-09T01:24:46;19.40;99.90
41469;DHT22;27206;47.032;15.484;2023-07-09T01:27:12;19.40;99.90
41469;DHT22;27206;47.032;15.484;2023-07-09T01:29:38;19.40;99.90
41469;DHT22;27206;47.032;15.484;2023-07-09T01:32:05;19.40;99.90
41469;DHT22;27206;47.032;15.484;2023-07-09T01:34:32;19.40;99.90
41469;DHT22;27206;47.032;15.484;2023-07-09T01:36:57;19.40;99.90
41469;DHT22;27206;47.032;15.484;2023-07-09T01:39:25;19.30;99.90
41469;DHT22;27206;47.032;15.484;2023-07-09T01:41:51;19.20;99.90
41469;DHT22;27206;47.032;15.484;2023-07-09T01:44:17;19.20;99.90
41469;DHT22;27206;47.032;15.484;2023-07-09T01:46:42;19.10;99.90
41469;DHT22;27206;47.032;15.484;2023-07-09T01:49:11;19.20;99.90
41469;DHT22;27206;47.032;15.484;2023-07-09T01:51:37;19.20;99.90
41469;DHT22;27206;47.032;15.484;2023-07-09T01:54:04;19.10;99.90
41469;DHT22;27206;47.032;15.484;2023-07-09T01:56:29;19.10;99.90
41469;DHT22;27206;47.032;15.484;2023-07-09T01:58:55;19.10;99.90
41469;DHT22;27206;47.032;15.484;2023-07-09T02:01:27;19.10;99.90
41469;DHT22;27206;47.032;15.484;2023-07-09T02:03:53;19.10;99.90
41469;DHT22;27206;47.032;15.484;2023-07-09T02:06:19;19.10;99.90
41469;DHT22;27206;47.032;15.484;2023-07-09T02:08:45;19.00;99.90
41469;DHT22;27206;47.032;15.484;2023-07-09T02:11:11;19.00;99.90
41469;DHT22;27206;47.032;15.484;2023-07-09T02:13:36;19.00;99.90
41469;DHT22;27206;47.032;15.484;2023-07-09T02:16:02;19.00;99.90
41469;DHT22;27206;47.032;15.484;2023-07-09T02:18:28;19.00;99.90
41469;DHT22;27206;47.032;15.484;2023-07-09T02:20:54;19.00;99.90
41469;DHT22;27206;47.032;15.484;2023-07-09T02:23:19;19.00;99.90
41469;DHT22;27206;47.032;15.484;2023-07-09T02:25:45;18.90;99.90
41469;DHT22;27206;47.032;15.484;2023-07-09T02:28:11;18.80;99.90
41469;DHT22;27206;47.032;15.484;2023-07-09T02:30:36;18.80;99.90
41469;DHT22;27206;47.032;15.484;2023-07-09T02:33:02;18.80;99.90
41469;DHT22;27206;47.032;15.484;2023-07-09T02:35:28;18.80;99.90
41469;DHT22;27206;47.032;15.484;2023-07-09T02:37:53;18.90;99.90
41469;DHT22;27206;47.032;15.484;2023-07-09T02:40:19;18.90;99.90
41469;DHT22;27206;47.032;15.484;2023-07-09T02:42:44;18.90;99.90
41469;DHT22;27206;47.032;15.484;2023-07-09T02:45:10;18.80;99.90
41469;DHT22;27206;47.032;15.484;2023-07-09T02:47:36;18.80;99.90
41469;DHT22;27206;47.032;15.484;2023-07-09T02:50:02;18.80;99.90
41469;DHT22;27206;47.032;15.484;2023-07-09T02:52:28;18.90;99.90
41469;DHT22;27206;47.032;15.484;2023-07-09T02:54:54;18.80;99.90
41469;DHT22;27206;47.032;15.484;2023-07-09T02:57:19;18.90;99.90
41469;DHT22;27206;47.032;15.484;2023-07-09T02:59:45;18.80;99.90
41469;DHT22;27206;47.032;15.484;2023-07-09T03:02:11;18.80;99.90
41469;DHT22;27206;47.032;15.484;2023-07-09T03:04:37;18.90;99.90
41469;DHT22;27206;47.032;15.484;2023-07-09T03:07:02;18.80;99.90
41469;DHT22;27206;47.032;15.484;2023-07-09T03:09:28;18.80;99.90
41469;DHT22;27206;47.032;15.484;2023-07-09T03:11:54;18.90;99.90
41469;DHT22;27206;47.032;15.484;2023-07-09T03:14:20;18.90;99.90
41469;DHT22;27206;47.032;15.484;2023-07-09T03:16:46;18.80;99.90
41469;DHT22;27206;47.032;15.484;2023-07-09T03:19:11;18.70;99.90
41469;DHT22;27206;47.032;15.484;2023-07-09T03:21:37;18.80;99.90
41469;DHT22;27206;47.032;15.484;2023-07-09T03:24:03;18.70;99.90
41469;DHT22;27206;47.032;15.484;2023-07-09T03:26:28;18.70;99.90
41469;DHT22;27206;47.032;15.484;2023-07-09T03:28:55;18.60;99.90
41469;DHT22;27206;47.032;15.484;2023-07-09T03:31:21;18.60;99.90
41469;DHT22;27206;47.032;15.484;2023-07-09T03:33:48;18.60;99.90
41469;DHT22;27206;47.032;15.484;2023-07-09T03:36:14;18.60;99.90
41469;DHT22;27206;47.032;15.484;2023-07-09T03:38:40;18.60;99.90
41469;DHT22;27206;47.032;15.484;2023-07-09T03:41:06;18.50;99.90
41469;DHT22;27206;47.032;15.484;2023-07-09T03:43:32;18.40;99.90
41469;DHT22;27206;47.032;15.484;2023-07-09T03:45:58;18.40;99.90
41469;DHT22;27206;47.032;15.484;2023-07-09T03:48:23;18.50;99.90
41469;DHT22;27206;47.032;15.484;2023-07-09T03:50:49;18.50;99.90
41469;DHT22;27206;47.032;15.484;2023-07-09T03:53:16;18.50;99.90
41469;DHT22;27206;47.032;15.484;2023-07-09T03:55:44;18.30;99.90
41469;DHT22;27206;47.032;15.484;2023-07-09T03:58:11;18.40;99.90
41469;DHT22;27206;47.032;15.484;2023-07-09T04:00:37;18.50;99.90
41469;DHT22;27206;47.032;15.484;2023-07-09T04:03:02;18.60;99.90
41469;DHT22;27206;47.032;15.484;2023-07-09T04:05:28;18.60;99.90
41469;DHT22;27206;47.032;15.484;2023-07-09T04:07:54;18.70;99.90
41469;DHT22;27206;47.032;15.484;2023-07-09T04:10:20;18.80;99.90
41469;DHT22;27206;47.032;15.484;2023-07-09T04:12:46;18.90;99.90
41469;DHT22;27206;47.032;15.484;2023-07-09T04:15:12;18.90;99.90
41469;DHT22;27206;47.032;15.484;2023-07-09T04:17:39;19.00;99.90
41469;DHT22;27206;47.032;15.484;2023-07-09T04:20:06;19.00;99.90
41469;DHT22;27206;47.032;15.484;2023-07-09T04:22:33;19.00;99.90
41469;DHT22;27206;47.032;15.484;2023-07-09T04:24:59;18.90;99.90
41469;DHT22;27206;47.032;15.484;2023-07-09T04:27:25;18.90;99.90
41469;DHT22;27206;47.032;15.484;2023-07-09T04:29:54;19.10;99.90
41469;DHT22;27206;47.032;15.484;2023-07-09T04:32:20;19.00;99.90
41469;DHT22;27206;47.032;15.484;2023-07-09T04:34:46;19.20;99.90
41469;DHT22;27206;47.032;15.484;2023-07-09T04:37:13;19.30;99.90
41469;DHT22;27206;47.032;15.484;2023-07-09T04:39:39;19.30;99.90
41469;DHT22;27206;47.032;15.484;2023-07-09T04:42:11;19.20;99.90
41469;DHT22;27206;47.032;15.484;2023-07-09T04:44:37;19.00;99.90
41469;DHT22;27206;47.032;15.484;2023-07-09T04:47:02;19.00;99.90
41469;DHT22;27206;47.032;15.484;2023-07-09T04:49:28;19.00;99.90
41469;DHT22;27206;47.032;15.484;2023-07-09T04:51:54;19.00;99.90
41469;DHT22;27206;47.032;15.484;2023-07-09T04:54:25;19.10;99.90
41469;DHT22;27206;47.032;15.484;2023-07-09T04:56:51;19.30;99.90
41469;DHT22;27206;47.032;15.484;2023-07-09T04:59:16;19.40;99.90
41469;DHT22;27206;47.032;15.484;2023-07-09T05:01:42;19.80;99.90
41469;DHT22;27206;47.032;15.484;2023-07-09T05:04:07;19.70;99.90
41469;DHT22;27206;47.032;15.484;2023-07-09T05:06:34;19.50;99.90
41469;DHT22;27206;47.032;15.484;2023-07-09T05:09:00;19.70;99.90
41469;DHT22;27206;47.032;15.484;2023-07-09T05:11:25;19.50;99.90
41469;DHT22;27206;47.032;15.484;2023-07-09T05:13:51;19.50;99.90
41469;DHT22;27206;47.032;15.484;2023-07-09T05:16:17;19.50;99.90
41469;DHT22;27206;47.032;15.484;2023-07-09T05:18:44;19.50;99.90
41469;DHT22;27206;47.032;15.484;2023-07-09T05:21:10;19.60;99.90
41469;DHT22;27206;47.032;15.484;2023-07-09T05:23:35;19.50;99.90
41469;DHT22;27206;47.032;15.484;2023-07-09T05:26:02;19.70;99.90
41469;DHT22;27206;47.032;15.484;2023-07-09T05:28:32;19.50;99.90
41469;DHT22;27206;47.032;15.484;2023-07-09T05:31:01;19.60;99.90
41469;DHT22;27206;47.032;15.484;2023-07-09T05:33:26;19.60;99.90
41469;DHT22;27206;47.032;15.484;2023-07-09T05:35:52;19.70;99.90
41469;DHT22;27206;47.032;15.484;2023-07-09T05:38:17;19.70;99.90
41469;DHT22;27206;47.032;15.484;2023-07-09T05:40:43;19.90;99.90
41469;DHT22;27206;47.032;15.484;2023-07-09T05:43:12;20.00;99.90
41469;DHT22;27206;47.032;15.484;2023-07-09T05:45:40;20.20;99.90
41469;DHT22;27206;47.032;15.484;2023-07-09T05:48:06;20.30;99.90
41469;DHT22;27206;47.032;15.484;2023-07-09T05:50:34;20.10;99.90
41469;DHT22;27206;47.032;15.484;2023-07-09T05:53:00;20.10;99.90
41469;DHT22;27206;47.032;15.484;2023-07-09T05:55:26;20.10;99.90
41469;DHT22;27206;47.032;15.484;2023-07-09T05:57:53;20.20;99.90
41469;DHT22;27206;47.032;15.484;2023-07-09T06:00:18;20.20;99.90
41469;DHT22;27206;47.032;15.484;2023-07-09T06:02:44;20.30;99.90
41469;DHT22;27206;47.032;15.484;2023-07-09T06:05:10;20.30;99.90
41469;DHT22;27206;47.032;15.484;2023-07-09T06:07:37;20.40;99.90
41469;DHT22;27206;47.032;15.484;2023-07-09T06:10:06;20.50;99.90
41469;DHT22;27206;47.032;15.484;2023-07-09T06:12:33;20.60;99.90
41469;DHT22;27206;47.032;15.484;2023-07-09T06:14:59;20.60;99.90
41469;DHT22;27206;47.032;15.484;2023-07-09T06:17:25;20.70;99.90
41469;DHT22;27206;47.032;15.484;2023-07-09T06:19:50;20.80;99.90
41469;DHT22;27206;47.032;15.484;2023-07-09T06:22:16;20.90;99.90
41469;DHT22;27206;47.032;15.484;2023-07-09T06:24:41;20.90;99.90
41469;DHT22;27206;47.032;15.484;2023-07-09T06:27:08;20.90;99.90
41469;DHT22;27206;47.032;15.484;2023-07-09T06:29:34;21.00;99.90
41469;DHT22;27206;47.032;15.484;2023-07-09T06:32:00;21.00;99.90
41469;DHT22;27206;47.032;15.484;2023-07-09T06:34:25;21.10;99.90
41469;DHT22;27206;47.032;15.484;2023-07-09T06:36:51;21.20;99.90
41469;DHT22;27206;47.032;15.484;2023-07-09T06:39:18;21.30;99.90
41469;DHT22;27206;47.032;15.484;2023-07-09T06:41:44;21.40;99.90
41469;DHT22;27206;47.032;15.484;2023-07-09T06:44:10;21.40;99.90
41469;DHT22;27206;47.032;15.484;2023-07-09T06:46:36;21.60;99.90
41469;DHT22;27206;47.032;15.484;2023-07-09T06:49:03;21.60;99.90
41469;DHT22;27206;47.032;15.484;2023-07-09T06:51:32;21.70;99.90
41469;DHT22;27206;47.032;15.484;2023-07-09T06:53:57;21.80;99.90
41469;DHT22;27206;47.032;15.484;2023-07-09T06:56:23;21.80;99.90
41469;DHT22;27206;47.032;15.484;2023-07-09T06:58:49;21.80;99.90
41469;DHT22;27206;47.032;15.484;2023-07-09T07:01:15;21.90;99.90
41469;DHT22;27206;47.032;15.484;2023-07-09T07:03:41;22.00;99.90
41469;DHT22;27206;47.032;15.484;2023-07-09T07:06:06;22.10;99.90
41469;DHT22;27206;47.032;15.484;2023-07-09T07:08:33;22.20;99.90
41469;DHT22;27206;47.032;15.484;2023-07-09T07:11:00;22.20;99.90
41469;DHT22;27206;47.032;15.484;2023-07-09T07:13:36;22.30;99.90
41469;DHT22;27206;47.032;15.484;2023-07-09T07:16:07;22.40;99.90
41469;DHT22;27206;47.032;15.484;2023-07-09T07:18:33;22.50;99.90
41469;DHT22;27206;47.032;15.484;2023-07-09T07:21:00;22.60;99.90
41469;DHT22;27206;47.032;15.484;2023-07-09T07:23:26;22.70;99.90
41469;DHT22;27206;47.032;15.484;2023-07-09T07:25:51;22.90;99.90
41469;DHT22;27206;47.032;15.484;2023-07-09T07:28:17;22.90;99.90
41469;DHT22;27206;47.032;15.484;2023-07-09T07:30:43;22.90;99.90
41469;DHT22;27206;47.032;15.484;2023-07-09T07:33:09;23.00;99.90
41469;DHT22;27206;47.032;15.484;2023-07-09T07:35:35;23.10;99.90
41469;DHT22;27206;47.032;15.484;2023-07-09T07:38:02;23.20;99.90
41469;DHT22;27206;47.032;15.484;2023-07-09T07:40:27;23.30;99.90
41469;DHT22;27206;47.032;15.484;2023-07-09T07:42:53;23.40;99.90
41469;DHT22;27206;47.032;15.484;2023-07-09T07:45:20;23.50;99.90
41469;DHT22;27206;47.032;15.484;2023-07-09T07:47:46;23.60;99.90
41469;DHT22;27206;47.032;15.484;2023-07-09T07:50:11;23.70;99.90
41469;DHT22;27206;47.032;15.484;2023-07-09T07:52:37;23.70;99.90
41469;DHT22;27206;47.032;15.484;2023-07-09T07:55:05;23.90;99.90
41469;DHT22;27206;47.032;15.484;2023-07-09T07:57:31;23.90;99.90
41469;DHT22;27206;47.032;15.484;2023-07-09T07:59:56;24.00;99.90
41469;DHT22;27206;47.032;15.484;2023-07-09T08:02:23;24.10;99.90
41469;DHT22;27206;47.032;15.484;2023-07-09T08:04:49;24.20;99.90
41469;DHT22;27206;47.032;15.484;2023-07-09T08:07:17;24.30;99.90
41469;DHT22;27206;47.032;15.484;2023-07-09T08:09:45;24.40;99.90
41469;DHT22;27206;47.032;15.484;2023-07-09T08:12:12;24.60;99.90
41469;DHT22;27206;47.032;15.484;2023-07-09T08:14:39;24.80;99.90
41469;DHT22;27206;47.032;15.484;2023-07-09T08:17:06;24.80;99.90
41469;DHT22;27206;47.032;15.484;2023-07-09T08:19:32;25.00;99.90
41469;DHT22;27206;47.032;15.484;2023-07-09T08:22:08;25.00;99.90
41469;DHT22;27206;47.032;15.484;2023-07-09T08:24:34;25.10;99.90
41469;DHT22;27206;47.032;15.484;2023-07-09T08:27:00;25.20;99.90
41469;DHT22;27206;47.032;15.484;2023-07-09T08:29:27;25.30;99.90
41469;DHT22;27206;47.032;15.484;2023-07-09T08:31:52;25.40;99.90
41469;DHT22;27206;47.032;15.484;2023-07-09T08:34:18;25.40;99.90
41469;DHT22;27206;47.032;15.484;2023-07-09T08:36:44;25.50;99.90
41469;DHT22;27206;47.032;15.484;2023-07-09T08:39:10;25.80;99.90
41469;DHT22;27206;47.032;15.484;2023-07-09T08:41:45;25.90;99.90
41469;DHT22;27206;47.032;15.484;2023-07-09T08:52:09;26.40;99.90
41469;DHT22;27206;47.032;15.484;2023-07-09T08:54:36;26.50;99.90
41469;DHT22;27206;47.032;15.484;2023-07-09T08:57:17;26.80;99.90
41469;DHT22;27206;47.032;15.484;2023-07-09T08:59:45;26.90;99.90
41469;DHT22;27206;47.032;15.484;2023-07-09T09:02:34;27.00;99.90
41469;DHT22;27206;47.032;15.484;2023-07-09T09:05:03;27.00;99.90
41469;DHT22;27206;47.032;15.484;2023-07-09T09:07:41;27.20;99.90
41469;DHT22;27206;47.032;15.484;2023-07-09T09:10:13;27.40;99.90
41469;DHT22;27206;47.032;15.484;2023-07-09T09:13:28;27.50;99.90
41469;DHT22;27206;47.032;15.484;2023-07-09T09:15:30;27.50;99.90
41469;DHT22;27206;47.032;15.484;2023-07-09T09:18:04;27.50;99.90
41469;DHT22;27206;47.032;15.484;2023-07-09T09:20:35;27.70;99.90
41469;DHT22;27206;47.032;15.484;2023-07-09T09:25:35;28.00;99.90
41469;DHT22;27206;47.032;15.484;2023-07-09T09:28:03;28.00;99.90
41469;DHT22;27206;47.032;15.484;2023-07-09T09:30:30;28.30;99.90
41469;DHT22;27206;47.032;15.484;2023-07-09T09:33:00;28.40;99.90
41469;DHT22;27206;47.032;15.484;2023-07-09T09:35:32;28.40;99.90
41469;DHT22;27206;47.032;15.484;2023-07-09T09:37:59;28.60;99.90
41469;DHT22;27206;47.032;15.484;2023-07-09T09:40:27;28.70;99.90
41469;DHT22;27206;47.032;15.484;2023-07-09T09:42:56;28.90;99.90
41469;DHT22;27206;47.032;15.484;2023-07-09T09:45:33;29.40;99.90
41469;DHT22;27206;47.032;15.484;2023-07-09T09:48:14;29.40;99.90
41469;DHT22;27206;47.032;15.484;2023-07-09T09:50:40;29.30;99.90
41469;DHT22;27206;47.032;15.484;2023-07-09T09:53:08;29.40;99.90
41469;DHT22;27206;47.032;15.484;2023-07-09T09:55:34;29.50;99.90
41469;DHT22;27206;47.032;15.484;2023-07-09T09:58:00;29.70;99.90
41469;DHT22;27206;47.032;15.484;2023-07-09T10:00:30;29.70;99.90
41469;DHT22;27206;47.032;15.484;2023-07-09T10:03:03;29.80;99.90
41469;DHT22;27206;47.032;15.484;2023-07-09T10:05:51;29.90;99.90
41469;DHT22;27206;47.032;15.484;2023-07-09T10:11:16;30.50;99.90
41469;DHT22;27206;47.032;15.484;2023-07-09T10:13:46;30.70;99.90
41469;DHT22;27206;47.032;15.484;2023-07-09T10:16:29;30.80;99.90
41469;DHT22;27206;47.032;15.484;2023-07-09T10:19:16;31.00;99.90
41469;DHT22;27206;47.032;15.484;2023-07-09T10:22:04;31.00;99.90
41469;DHT22;27206;47.032;15.484;2023-07-09T10:27:10;31.40;99.90
41469;DHT22;27206;47.032;15.484;2023-07-09T10:35:04;31.60;99.90
41469;DHT22;27206;47.032;15.484;2023-07-09T10:40:12;31.50;99.90
41469;DHT22;27206;47.032;15.484;2023-07-09T10:42:54;31.70;99.90
41469;DHT22;27206;47.032;15.484;2023-07-09T10:45:29;32.00;99.90
41469;DHT22;27206;47.032;15.484;2023-07-09T10:48:07;32.10;99.90
41469;DHT22;27206;47.032;15.484;2023-07-09T10:50:37;32.00;99.90
41469;DHT22;27206;47.032;15.484;2023-07-09T10:55:53;32.00;99.90
41469;DHT22;27206;47.032;15.484;2023-07-09T10:58:35;31.90;99.90
41469;DHT22;27206;47.032;15.484;2023-07-09T11:01:03;32.00;99.90
41469;DHT22;27206;47.032;15.484;2023-07-09T11:03:52;31.90;99.90
41469;DHT22;27206;47.032;15.484;2023-07-09T11:06:28;32.40;99.90
41469;DHT22;27206;47.032;15.484;2023-07-09T11:08:57;32.30;99.90
41469;DHT22;27206;47.032;15.484;2023-07-09T11:11:33;32.10;99.90
41469;DHT22;27206;47.032;15.484;2023-07-09T11:14:02;32.00;99.90
41469;DHT22;27206;47.032;15.484;2023-07-09T11:16:38;31.80;99.90
41469;DHT22;27206;47.032;15.484;2023-07-09T11:19:05;32.20;99.90
41469;DHT22;27206;47.032;15.484;2023-07-09T11:21:45;32.20;99.90
41469;DHT22;27206;47.032;15.484;2023-07-09T11:24:30;32.30;99.90
41469;DHT22;27206;47.032;15.484;2023-07-09T11:26:56;32.50;99.90
41469;DHT22;27206;47.032;15.484;2023-07-09T11:29:25;32.60;99.90
41469;DHT22;27206;47.032;15.484;2023-07-09T11:31:50;32.60;99.90
41469;DHT22;27206;47.032;15.484;2023-07-09T11:34:19;32.90;99.90
41469;DHT22;27206;47.032;15.484;2023-07-09T11:39:21;33.20;99.90
41469;DHT22;27206;47.032;15.484;2023-07-09T11:41:48;33.30;99.90
41469;DHT22;27206;47.032;15.484;2023-07-09T11:50:01;33.50;99.90
41469;DHT22;27206;47.032;15.484;2023-07-09T11:52:32;33.30;99.90
41469;DHT22;27206;47.032;15.484;2023-07-09T11:55:14;33.40;99.90
41469;DHT22;27206;47.032;15.484;2023-07-09T11:57:48;33.30;99.90
41469;DHT22;27206;47.032;15.484;2023-07-09T12:00:15;33.40;99.90
41469;DHT22;27206;47.032;15.484;2023-07-09T12:02:40;33.70;99.90
41469;DHT22;27206;47.032;15.484;2023-07-09T12:05:06;33.70;99.90
41469;DHT22;27206;47.032;15.484;2023-07-09T12:07:32;33.80;99.90
41469;DHT22;27206;47.032;15.484;2023-07-09T12:10:03;33.80;99.90
41469;DHT22;27206;47.032;15.484;2023-07-09T12:12:34;34.10;99.90
41469;DHT22;27206;47.032;15.484;2023-07-09T12:15:05;34.10;99.90
41469;DHT22;27206;47.032;15.484;2023-07-09T12:17:31;34.40;99.90
41469;DHT22;27206;47.032;15.484;2023-07-09T12:19:59;34.00;99.90
41469;DHT22;27206;47.032;15.484;2023-07-09T12:22:25;33.80;99.90
41469;DHT22;27206;47.032;15.484;2023-07-09T12:24:50;33.50;99.90
41469;DHT22;27206;47.032;15.484;2023-07-09T12:27:25;33.60;99.90
41469;DHT22;27206;47.032;15.484;2023-07-09T12:29:54;33.50;99.90
41469;DHT22;27206;47.032;15.484;2023-07-09T12:32:20;33.40;99.90
41469;DHT22;27206;47.032;15.484;2023-07-09T12:34:52;33.20;99.90
41469;DHT22;27206;47.032;15.484;2023-07-09T12:37:19;33.60;99.90
41469;DHT22;27206;47.032;15.484;2023-07-09T12:39:46;34.00;99.90
41469;DHT22;27206;47.032;15.484;2023-07-09T12:42:17;34.00;99.90
41469;DHT22;27206;47.032;15.484;2023-07-09T12:44:44;34.00;99.90
41469;DHT22;27206;47.032;15.484;2023-07-09T12:47:14;34.30;99.90
41469;DHT22;27206;47.032;15.484;2023-07-09T12:49:42;34.20;99.90
41469;DHT22;27206;47.032;15.484;2023-07-09T12:52:19;34.00;99.90
41469;DHT22;27206;47.032;15.484;2023-07-09T12:55:21;33.80;99.90
41469;DHT22;27206;47.032;15.484;2023-07-09T12:57:47;33.80;99.90
41469;DHT22;27206;47.032;15.484;2023-07-09T13:00:15;33.70;99.90
41469;DHT22;27206;47.032;15.484;2023-07-09T13:02:41;33.70;99.90
41469;DHT22;27206;47.032;15.484;2023-07-09T13:05:18;33.60;99.90
41469;DHT22;27206;47.032;15.484;2023-07-09T13:07:49;33.60;99.90
41469;DHT22;27206;47.032;15.484;2023-07-09T13:10:29;33.60;99.90
41469;DHT22;27206;47.032;15.484;2023-07-09T13:12:59;33.50;99.90
41469;DHT22;27206;47.032;15.484;2023-07-09T13:18:03;33.70;99.90
41469;DHT22;27206;47.032;15.484;2023-07-09T13:20:31;33.80;99.90
41469;DHT22;27206;47.032;15.484;2023-07-09T13:22:58;33.60;99.90
41469;DHT22;27206;47.032;15.484;2023-07-09T13:25:24;33.70;99.90
41469;DHT22;27206;47.032;15.484;2023-07-09T13:27:50;33.80;99.90
41469;DHT22;27206;47.032;15.484;2023-07-09T13:30:17;33.80;99.90
41469;DHT22;27206;47.032;15.484;2023-07-09T13:32:45;33.90;99.90
41469;DHT22;27206;47.032;15.484;2023-07-09T13:35:17;34.10;99.90
41469;DHT22;27206;47.032;15.484;2023-07-09T13:37:46;34.10;99.90
41469;DHT22;27206;47.032;15.484;2023-07-09T13:40:14;34.10;99.90
41469;DHT22;27206;47.032;15.484;2023-07-09T13:42:42;34.10;99.90
41469;DHT22;27206;47.032;15.484;2023-07-09T13:45:28;34.30;99.90
41469;DHT22;27206;47.032;15.484;2023-07-09T13:47:54;34.40;99.90
41469;DHT22;27206;47.032;15.484;2023-07-09T13:50:20;34.60;99.90
41469;DHT22;27206;47.032;15.484;2023-07-09T13:52:46;34.90;99.90
41469;DHT22;27206;47.032;15.484;2023-07-09T13:55:20;34.90;99.90
41469;DHT22;27206;47.032;15.484;2023-07-09T13:57:49;34.60;99.90
41469;DHT22;27206;47.032;15.484;2023-07-09T14:00:16;34.40;99.90
41469;DHT22;27206;47.032;15.484;2023-07-09T14:02:43;34.70;99.90
41469;DHT22;27206;47.032;15.484;2023-07-09T14:05:12;34.40;99.90
41469;DHT22;27206;47.032;15.484;2023-07-09T14:07:40;34.10;99.90
41469;DHT22;27206;47.032;15.484;2023-07-09T14:10:11;34.00;99.90
41469;DHT22;27206;47.032;15.484;2023-07-09T14:12:41;33.90;99.90
41469;DHT22;27206;47.032;15.484;2023-07-09T14:15:18;34.20;99.90
41469;DHT22;27206;47.032;15.484;2023-07-09T14:17:45;34.10;99.90
41469;DHT22;27206;47.032;15.484;2023-07-09T14:20:16;33.90;99.90
41469;DHT22;27206;47.032;15.484;2023-07-09T14:22:43;34.00;99.90
41469;DHT22;27206;47.032;15.484;2023-07-09T14:25:24;34.20;99.90
41469;DHT22;27206;47.032;15.484;2023-07-09T14:27:52;34.30;99.90
41469;DHT22;27206;47.032;15.484;2023-07-09T14:30:23;34.30;99.90
41469;DHT22;27206;47.032;15.484;2023-07-09T14:32:50;34.10;99.90
41469;DHT22;27206;47.032;15.484;2023-07-09T14:35:22;34.20;99.90
41469;DHT22;27206;47.032;15.484;2023-07-09T14:37:50;34.40;99.90
41469;DHT22;27206;47.032;15.484;2023-07-09T14:40:17;34.40;99.90
41469;DHT22;27206;47.032;15.484;2023-07-09T14:42:43;34.60;99.90
41469;DHT22;27206;47.032;15.484;2023-07-09T14:45:18;34.70;99.90
41469;DHT22;27206;47.032;15.484;2023-07-09T14:47:44;34.50;99.90
41469;DHT22;27206;47.032;15.484;2023-07-09T14:50:10;34.40;99.90
41469;DHT22;27206;47.032;15.484;2023-07-09T14:52:36;34.50;99.90
41469;DHT22;27206;47.032;15.484;2023-07-09T14:55:02;34.70;99.90
41469;DHT22;27206;47.032;15.484;2023-07-09T14:57:28;34.40;99.90
41469;DHT22;27206;47.032;15.484;2023-07-09T14:59:56;34.40;99.90
41469;DHT22;27206;47.032;15.484;2023-07-09T15:05:04;34.20;99.90
41469;DHT22;27206;47.032;15.484;2023-07-09T15:07:31;34.20;99.90
41469;DHT22;27206;47.032;15.484;2023-07-09T15:09:58;34.10;99.90
41469;DHT22;27206;47.032;15.484;2023-07-09T15:12:30;33.80;99.90
41469;DHT22;27206;47.032;15.484;2023-07-09T15:15:27;33.70;99.90
41469;DHT22;27206;47.032;15.484;2023-07-09T15:17:58;33.50;99.90
41469;DHT22;27206;47.032;15.484;2023-07-09T15:20:27;33.40;99.90
41469;DHT22;27206;47.032;15.484;2023-07-09T15:22:55;33.50;99.90
41469;DHT22;27206;47.032;15.484;2023-07-09T15:25:27;33.40;99.90
41469;DHT22;27206;47.032;15.484;2023-07-09T15:27:53;33.40;99.90
41469;DHT22;27206;47.032;15.484;2023-07-09T15:30:22;33.30;99.90
41469;DHT22;27206;47.032;15.484;2023-07-09T15:32:49;33.30;99.90
41469;DHT22;27206;47.032;15.484;2023-07-09T15:35:16;33.30;99.90
41469;DHT22;27206;47.032;15.484;2023-07-09T15:37:43;33.10;99.90
41469;DHT22;27206;47.032;15.484;2023-07-09T15:42:46;33.10;99.90
41469;DHT22;27206;47.032;15.484;2023-07-09T15:45:17;32.90;99.90
41469;DHT22;27206;47.032;15.484;2023-07-09T15:47:44;32.90;99.90
41469;DHT22;27206;47.032;15.484;2023-07-09T15:50:18;32.80;99.90
41469;DHT22;27206;47.032;15.484;2023-07-09T15:52:45;32.70;99.90
41469;DHT22;27206;47.032;15.484;2023-07-09T15:55:14;32.60;99.90
41469;DHT22;27206;47.032;15.484;2023-07-09T15:57:41;32.60;99.90
41469;DHT22;27206;47.032;15.484;2023-07-09T16:00:20;32.70;99.90
41469;DHT22;27206;47.032;15.484;2023-07-09T16:02:47;32.50;99.90
41469;DHT22;27206;47.032;15.484;2023-07-09T16:05:18;32.50;99.90
41469;DHT22;27206;47.032;15.484;2023-07-09T16:07:44;32.40;99.90
41469;DHT22;27206;47.032;15.484;2023-07-09T16:10:09;32.70;99.90
41469;DHT22;27206;47.032;15.484;2023-07-09T16:12:35;32.70;99.90
41469;DHT22;27206;47.032;15.484;2023-07-09T16:15:00;32.30;99.90